createdAt,value
2019-06-15T00:02:57.347Z,99365.84
2019-06-15T00:07:04.286Z,99341.16
2019-06-15T00:11:11.073Z,99322.89
2019-06-15T00:15:18.169Z,99318.10
2019-06-15T00:19:25.011Z,99320.23
2019-06-15T00:23:31.983Z,99325.34
2019-06-15T00:27:38.856Z,99339.56
2019-06-15T00:31:46.164Z,99346.25
2019-06-15T00:35:55.062Z,99340.36
2019-06-15T00:40:03.777Z,99330.67
2019-06-15T00:44:10.828Z,99330.42
2019-06-15T00:48:17.850Z,99317.00
2019-06-15T00:52:24.638Z,99330.44
2019-06-15T00:56:31.486Z,99326.66
2019-06-15T01:00:38.576Z,99327.45
2019-06-15T01:04:45.466Z,99327.21
2019-06-15T01:08:52.420Z,99313.00
2019-06-15T01:12:59.474Z,99299.03
2019-06-15T01:17:06.308Z,99280.81
2019-06-15T01:21:13.450Z,99282.17
2019-06-15T01:25:21.957Z,99269.02
2019-06-15T01:29:28.870Z,99268.21
2019-06-15T01:33:35.750Z,99254.28
2019-06-15T01:37:46.479Z,99235.52
2019-06-15T01:41:53.269Z,99232.30
2019-06-15T01:45:59.986Z,99228.83
2019-06-15T01:50:07.016Z,99226.14
2019-06-15T01:54:13.818Z,99230.70
2019-06-15T01:58:20.544Z,99233.38
2019-06-15T02:02:27.271Z,99229.61
2019-06-15T02:06:34.261Z,99242.21
2019-06-15T02:10:41.024Z,99234.66
2019-06-15T02:14:48.034Z,99238.68
2019-06-15T02:18:54.906Z,99234.92
2019-06-15T02:23:02.065Z,99229.83
2019-06-15T02:27:08.850Z,99234.89
2019-06-15T02:31:15.711Z,99232.21
2019-06-15T02:35:22.706Z,99213.73
2019-06-15T02:39:29.656Z,99217.20
2019-06-15T02:43:36.614Z,99204.89
2019-06-15T02:47:43.469Z,99225.78
2019-06-15T02:51:52.581Z,99222.84
2019-06-15T02:56:02.070Z,99217.48
2019-06-15T03:00:11.209Z,99203.80
2019-06-15T03:04:39.080Z,99202.19
2019-06-15T03:08:49.732Z,99212.64
2019-06-15T03:12:57.348Z,99207.00
2019-06-15T03:17:04.308Z,99211.28
2019-06-15T03:21:11.177Z,99204.85
2019-06-15T03:25:18.205Z,99211.01
2019-06-15T03:29:25.128Z,99209.95
2019-06-15T03:33:32.286Z,99215.85
2019-06-15T03:37:40.856Z,99221.48
2019-06-15T03:41:47.768Z,99233.02
2019-06-15T03:45:54.932Z,99224.44
2019-06-15T03:50:02.129Z,99244.56
2019-06-15T03:54:09.292Z,99267.59
2019-06-15T03:58:18.806Z,99265.45
2019-06-15T04:02:28.726Z,99270.55
2019-06-15T04:06:35.792Z,99277.77
2019-06-15T04:10:45.185Z,99285.25
2019-06-15T04:14:52.585Z,99292.22
2019-06-15T04:38:35.754Z,99347.41
2019-06-15T05:42:16.052Z,99406.64
2019-06-15T05:46:46.981Z,99431.08
2019-06-15T06:07:45.205Z,99500.33
2019-06-15T06:11:52.005Z,99504.62
2019-06-15T06:16:00.066Z,99513.52
2019-06-15T06:20:08.372Z,99514.04
2019-06-15T06:24:16.317Z,99523.18
2019-06-15T06:28:37.957Z,99531.77
2019-06-15T06:32:50.657Z,99541.70
2019-06-15T06:36:59.567Z,99545.71
2019-06-15T06:41:39.048Z,99554.28
2019-06-15T06:46:16.422Z,99552.16
2019-06-15T06:50:31.083Z,99565.55
2019-06-15T06:55:00.642Z,99570.36
2019-06-15T06:59:20.274Z,99587.80
2019-06-15T07:04:00.204Z,99575.38
2019-06-15T07:08:29.257Z,99579.28
2019-06-15T07:12:45.313Z,99590.11
2019-06-15T07:27:39.019Z,99626.80
2019-06-15T07:31:49.356Z,99649.52
2019-06-15T07:36:06.340Z,99653.14
2019-06-15T07:40:17.756Z,99659.80
2019-06-15T07:44:30.322Z,99659.26
2019-06-15T07:48:52.224Z,99662.47
2019-06-15T07:53:24.803Z,99664.47
2019-06-15T07:58:24.037Z,99674.39
2019-06-15T08:03:16.199Z,99674.97
2019-06-15T08:08:11.910Z,99671.05
2019-06-15T08:12:21.358Z,99690.38
2019-06-15T08:16:55.061Z,99687.82
2019-06-15T08:21:02.054Z,99694.02
2019-06-15T08:25:10.114Z,99705.82
2019-06-15T08:29:25.824Z,99703.97
2019-06-15T08:33:37.436Z,99713.49
2019-06-15T08:37:50.240Z,99718.94
2019-06-15T08:42:07.557Z,99710.08
2019-06-15T08:46:33.946Z,99720.38
2019-06-15T08:50:45.792Z,99728.59
2019-06-15T08:54:58.521Z,99744.77
2019-06-15T08:59:05.921Z,99753.98
2019-06-15T09:03:17.603Z,99755.58
2019-06-15T09:07:24.821Z,99757.84
2019-06-15T09:11:31.929Z,99774.04
2019-06-15T09:15:52.648Z,99772.03
2019-06-15T09:19:59.439Z,99766.63
2019-06-15T09:24:06.178Z,99785.14
2019-06-15T09:28:13.032Z,99791.39
2019-06-15T09:32:19.915Z,99792.16
2019-06-15T09:36:26.640Z,99786.73
2019-06-15T09:40:33.615Z,99797.67
2019-06-15T09:44:40.511Z,99801.94
2019-06-15T09:48:49.832Z,99800.82
2019-06-15T09:52:57.936Z,99818.55
2019-06-15T09:57:05.196Z,99817.42
2019-06-15T10:01:15.215Z,99809.81
2019-06-15T10:05:21.962Z,99823.04
2019-06-15T10:09:29.098Z,99807.44
2019-06-15T10:13:35.843Z,99832.07
2019-06-15T10:17:42.738Z,99823.63
2019-06-15T10:21:49.748Z,99834.72
2019-06-15T10:25:57.679Z,99838.61
2019-06-15T10:30:07.748Z,99845.20
2019-06-15T10:34:14.789Z,99863.84
2019-06-15T10:38:22.692Z,99853.17
2019-06-15T10:42:29.489Z,99856.19
2019-06-15T10:46:42.429Z,99873.41
2019-06-15T10:50:49.472Z,99874.75
2019-06-15T10:54:56.344Z,99890.91
2019-06-15T10:59:03.830Z,99889.50
2019-06-15T11:03:11.063Z,99891.39
2019-06-15T11:07:18.868Z,99890.68
2019-06-15T11:11:25.839Z,99896.47
2019-06-15T11:15:33.082Z,99893.23
2019-06-15T11:19:42.665Z,99893.20
2019-06-15T11:23:49.553Z,99900.19
2019-06-15T11:27:57.985Z,99904.89
2019-06-15T11:32:05.245Z,99904.05
2019-06-15T11:36:11.989Z,99906.58
2019-06-15T11:40:21.023Z,99739.59
2019-06-15T11:44:30.803Z,99904.92
2019-06-15T11:48:37.689Z,99906.27
2019-06-15T11:52:50.103Z,99900.22
2019-06-15T11:56:56.945Z,99900.06
2019-06-15T12:01:03.878Z,99905.50
2019-06-15T12:05:10.893Z,99900.16
2019-06-15T12:09:18.732Z,99903.88
2019-06-15T12:13:25.553Z,99901.87
2019-06-15T12:17:32.886Z,99901.97
2019-06-15T12:21:39.676Z,99898.23
2019-06-15T12:25:47.623Z,99916.08
2019-06-15T12:29:54.921Z,99913.09
2019-06-15T12:34:02.022Z,99912.88
2019-06-15T12:38:11.832Z,99913.52
2019-06-15T12:42:18.705Z,99921.66
2019-06-15T12:50:49.985Z,99911.91
2019-06-15T12:54:58.198Z,99909.27
2019-06-15T12:59:04.994Z,99920.64
2019-06-15T13:03:12.282Z,99932.13
2019-06-15T13:07:19.229Z,99922.43
2019-06-15T13:11:26.184Z,99918.23
2019-06-15T13:15:33.646Z,99919.27
2019-06-15T13:19:40.532Z,99920.77
2019-06-15T13:23:47.411Z,99912.41
2019-06-15T13:27:54.620Z,99918.22
2019-06-15T13:32:01.371Z,99923.27
2019-06-15T13:36:08.186Z,99922.45
2019-06-15T13:40:15.157Z,99920.75
2019-06-15T13:44:22.080Z,99924.17
2019-06-15T13:48:28.945Z,99933.13
2019-06-15T13:52:35.739Z,99929.86
2019-06-15T13:56:42.595Z,99922.77
2019-06-15T14:00:49.383Z,99922.43
2019-06-15T14:04:57.009Z,99937.65
2019-06-15T14:09:05.400Z,99927.50
2019-06-15T14:13:12.305Z,99924.38
2019-06-15T14:17:19.610Z,99921.95
2019-06-15T14:21:26.492Z,99922.98
2019-06-15T14:25:33.328Z,99922.83
2019-06-15T14:29:40.197Z,99924.89
2019-06-15T14:33:46.990Z,99915.28
2019-06-15T14:37:53.775Z,99923.52
2019-06-15T14:42:00.602Z,99919.33
2019-06-15T14:46:07.391Z,99915.02
2019-06-15T14:50:14.538Z,99927.78
2019-06-15T14:54:21.569Z,99925.43
2019-06-15T14:58:28.370Z,99923.14
2019-06-15T15:02:37.135Z,99923.98
2019-06-15T15:06:44.077Z,99921.95
2019-06-15T15:10:51.099Z,99932.06
2019-06-15T15:15:00.724Z,99920.74
2019-06-15T15:19:07.643Z,99937.56
2019-06-15T15:23:15.789Z,99931.13
2019-06-15T15:27:27.012Z,99928.27
2019-06-15T15:31:36.247Z,99932.86
2019-06-15T15:35:43.519Z,99938.28
2019-06-15T15:39:50.420Z,99924.02
2019-06-15T15:43:57.205Z,99937.80
2019-06-15T15:48:06.593Z,99923.70
2019-06-15T15:52:12.644Z,99912.57
2019-06-15T15:56:19.395Z,99915.23
2019-06-15T16:00:32.819Z,99914.16
2019-06-15T16:04:39.613Z,99921.28
2019-06-15T16:08:47.236Z,99911.54
2019-06-15T16:12:56.671Z,99918.09
2019-06-15T16:17:02.741Z,99904.99
2019-06-15T16:21:09.783Z,99899.70
2019-06-15T16:25:17.495Z,99900.33
2019-06-15T16:29:24.890Z,99907.25
2019-06-15T16:33:31.761Z,99898.09
2019-06-15T16:37:38.817Z,99893.59
2019-06-15T16:41:47.034Z,99899.64
2019-06-15T16:45:57.040Z,99908.91
2019-06-15T16:50:06.927Z,99907.96
2019-06-15T16:54:16.753Z,99909.99
2019-06-15T16:58:26.348Z,99893.87
2019-06-15T17:02:32.171Z,99900.23
2019-06-15T17:06:40.829Z,99901.86
2019-06-15T17:10:47.528Z,99904.95
2019-06-15T17:14:55.209Z,99889.97
2019-06-15T17:19:02.027Z,99893.03
2019-06-15T17:23:08.799Z,99888.32
2019-06-15T17:27:17.093Z,99891.94
2019-06-15T17:31:24.116Z,99905.29
2019-06-15T17:35:30.890Z,99900.02
2019-06-15T17:39:37.688Z,99900.42
2019-06-15T17:43:47.214Z,99901.31
2019-06-15T17:47:52.935Z,99906.83
2019-06-15T17:51:59.816Z,99920.77
2019-06-15T17:56:07.337Z,99910.19
2019-06-15T18:00:16.567Z,99902.25
2019-06-15T18:04:23.521Z,99899.81
2019-06-15T18:08:30.655Z,99910.43
2019-06-15T18:12:38.154Z,99908.41
2019-06-15T18:16:47.057Z,99910.44
2019-06-15T18:20:53.748Z,99904.38
2019-06-15T18:25:02.189Z,99901.45
2019-06-15T18:29:09.359Z,99894.55
2019-06-15T18:33:16.476Z,99890.66
2019-06-15T18:37:25.714Z,99890.66
2019-06-15T18:41:40.239Z,99893.44
2019-06-15T18:46:22.235Z,99897.94
2019-06-15T18:50:37.669Z,99910.47
2019-06-15T18:54:51.037Z,99909.89
2019-06-15T18:58:57.978Z,99909.89
2019-06-15T19:03:26.283Z,99909.59
2019-06-15T19:07:43.308Z,99916.21
2019-06-15T19:11:56.454Z,99914.44
2019-06-15T19:16:03.036Z,99911.83
2019-06-15T19:20:12.176Z,99919.20
2019-06-15T19:24:21.702Z,99927.39
2019-06-15T19:28:27.919Z,99928.02
2019-06-15T19:32:37.763Z,99928.09
2019-06-15T19:36:47.733Z,99926.55
2019-06-15T19:40:56.580Z,99928.78
2019-06-15T19:45:07.745Z,99932.61
2019-06-15T19:49:17.011Z,99931.60
2019-06-15T19:53:23.336Z,99931.66
2019-06-15T19:57:30.667Z,99940.31
2019-06-15T20:01:37.519Z,99938.23
2019-06-15T20:05:46.169Z,99951.22
2019-06-15T20:09:53.458Z,99965.83
2019-06-15T20:14:24.846Z,99966.95
2019-06-15T20:18:34.076Z,99977.19
2019-06-15T20:22:41.231Z,99985.82
2019-06-15T20:26:48.314Z,99992.55
2019-06-15T20:30:57.091Z,99997.14
2019-06-15T20:35:16.190Z,100012.78
2019-06-15T20:39:12.471Z,100012.78
2019-06-15T20:43:24.222Z,100024.11
2019-06-15T20:47:30.990Z,100033.52
2019-06-15T20:51:41.250Z,100034.88
2019-06-15T20:55:49.245Z,100032.97
2019-06-15T20:59:56.515Z,100037.01
2019-06-15T21:04:07.331Z,100039.69
2019-06-15T21:08:15.849Z,100012.42
2019-06-15T21:12:23.449Z,100005.97
2019-06-15T21:16:32.010Z,100000.59
2019-06-15T21:20:38.910Z,100005.67
2019-06-15T21:24:46.671Z,100015.91
2019-06-15T21:28:53.427Z,100026.63
2019-06-15T21:33:00.296Z,100034.69
2019-06-15T21:37:08.378Z,100034.13
2019-06-15T21:41:16.643Z,100049.70
2019-06-15T21:45:23.684Z,100063.17
2019-06-15T21:49:30.550Z,100069.64
2019-06-15T21:53:37.331Z,100073.65
2019-06-15T21:57:44.086Z,100081.25
2019-06-15T22:01:50.871Z,100082.50
2019-06-15T22:06:03.090Z,100100.52
2019-06-15T22:10:09.060Z,100102.41
2019-06-15T22:14:17.123Z,100095.05
2019-06-15T22:18:27.101Z,100100.48
2019-06-15T22:22:32.683Z,100088.25
2019-06-15T22:26:39.481Z,100085.36
2019-06-15T22:30:46.468Z,100093.39
2019-06-15T22:34:53.126Z,100108.92
2019-06-15T22:38:59.952Z,100115.03
2019-06-15T22:43:07.086Z,100116.83
2019-06-15T22:47:16.689Z,100120.02
2019-06-15T22:51:22.414Z,100116.56
2019-06-15T22:55:29.123Z,100114.38
2019-06-15T22:59:35.870Z,100122.70
2019-06-15T23:03:42.657Z,100113.06
2019-06-15T23:07:49.442Z,100120.64
2019-06-15T23:11:57.365Z,100119.02
2019-06-15T23:16:04.181Z,100138.72
2019-06-15T23:20:11.004Z,100142.52
2019-06-15T23:24:17.719Z,100143.88
2019-06-15T23:28:26.852Z,100145.80
2019-06-15T23:32:32.885Z,100148.25
2019-06-15T23:36:54.234Z,100149.05
2019-06-15T23:40:50.407Z,100147.13
2019-06-15T23:44:57.133Z,100150.94
2019-06-15T23:49:03.838Z,100158.47
2019-06-15T23:53:10.583Z,100155.48
2019-06-15T23:57:17.309Z,100159.50
